• Join FlightAware (Why Join?)
  • Login
  • US Flag 
10:51AM EDT


 

Airport Tracker/Info


-or-


 

Live Flight TrackerFlight Track Log ✈ NKS216 ✈ 10-Oct-2013 ✈ KLAX - KIAH

Flight Track Log - Related Links

Times and Time Zones

All times are in EDT time to prevent confusion due to time zone crossing. See the NKS216 flight status page for this flight to view local times or setup timezone preferences in your user account.

Time Position Orientation Groundspeed Altitude Reporting Facility
EDT Latitude Longitude Course Direction KTS MPH feet Rate Location/Type
02:46AM 33.9420 -118.4540 248° West 1,300  Level FlightAware
02:46AM 33.9353 -118.4625 226° Southwest 170 196 1,800 1,920 Climbing FlightAware ADS-B
02:47AM 33.8990 -118.4740 195° South 223 257 2,900 1,560 Climbing FlightAware
02:47AM 33.8878 -118.4773 194° South 242 278 3,100 2,220 Climbing FlightAware ADS-B
02:47AM 33.8637 -118.4852 195° South 258 297 4,100 2,760 Climbing FlightAware ADS-B
02:48AM 33.8402 -118.4919 193° South 282 325 5,000 3,060 Climbing FlightAware ADS-B
02:48AM 33.8144 -118.4976 190° South 286 329 6,200 3,600 Climbing FlightAware ADS-B
02:48AM 33.7865 -118.5030 189° South 289 333 7,500 3,720 Climbing FlightAware ADS-B
02:49AM 33.7672 -118.5071 190° South 283 326 8,500 3,420 Climbing FlightAware ADS-B
02:49AM 33.7469 -118.5116 190° South 298 343 9,400 2,700 Climbing FlightAware ADS-B
02:49AM 33.6970 -118.4990 168° South 322 371 10,800 2,100 Climbing FlightAware
02:50AM 33.6820 -118.4780 131° Southeast 338 389 11,100 1,320 Climbing FlightAware
02:50AM 33.6778 -118.4663 113° Southeast 343 395 11,300 2,580 Climbing FlightAware ADS-B
02:50AM 33.6563 -118.3962 110° East 353 406 13,100 2,520 Climbing FlightAware ADS-B
02:51AM 33.6410 -118.3330 106° East 371 427 14,200 2,160 Climbing FlightAware
02:51AM 33.6407 -118.3159 91° East 372 428 14,600 2,340 Climbing FlightAware ADS-B
02:52AM 33.6417 -118.2517 89° East 378 435 15,800 2,040 Climbing FlightAware ADS-B
02:52AM 33.6428 -118.1639 89° East 395 455 17,100 2,040 Climbing FlightAware ADS-B
02:53AM 33.6440 -118.0815 89° East 405 466 18,500 2,280 Climbing FlightAware ADS-B
02:54AM 33.6440 -117.9600 90° East 415 478 20,600 2,400 Climbing FlightAware
02:54AM 33.6445 -117.9390 88° East 411 473 21,000 2,280 Climbing FlightAware ADS-B
02:54AM 33.6440 -117.8660 90° East 419 482 22,100 1,680 Climbing FlightAware
02:55AM 33.6444 -117.8599 85° East 424 488 22,100 1,020 Level FlightAware ADS-B
02:55AM 33.6444 -117.7727 90° East 441 507 22,800 1,260 Climbing FlightAware ADS-B
02:56AM 33.6440 -117.6810 90° East 453 521 23,600 1,500 Climbing FlightAware ADS-B
02:56AM 33.6436 -117.5979 90° East 458 527 24,600 1,620 Climbing FlightAware ADS-B
02:57AM 33.6369 -117.4929 94° East 468 539 25,600 1,440 Climbing FlightAware ADS-B
02:58AM 33.6290 -117.4006 96° East 474 545 26,500 1,500 Climbing FlightAware ADS-B
02:58AM 33.6208 -117.2907 95° East 480 552 27,600 1,200 Climbing FlightAware ADS-B
02:59AM 33.6136 -117.1920 95° East 494 568 28,100 900 Climbing FlightAware ADS-B
02:59AM 33.6068 -117.1016 95° East 505 581 28,700 960 Climbing FlightAware ADS-B
03:00AM 33.5978 -116.9835 95° East 516 594 29,300 900 Climbing FlightAware ADS-B
03:01AM 33.5897 -116.8785 95° East 525 604 29,900 1,020 Climbing FlightAware ADS-B
03:01AM 33.5826 -116.7846 95° East 531 611 30,500 1,440 Climbing FlightAware ADS-B
03:02AM 33.5749 -116.6862 95° East 529 609 31,500 1,380 Climbing FlightAware ADS-B
03:02AM 33.5717 -116.6451 95° East 532 612 32,000 1,140 Climbing FlightAware ADS-B
03:03AM 33.5586 -116.4809 95° East 533 613 33,000 1,440 Climbing FlightAware ADS-B
03:04AM 33.5470 -116.3430 96° East 526 605 34,100 1,560 Climbing FlightAware
03:04AM 33.5452 -116.3155 94° East 528 608 34,300 1,080 Climbing FlightAware ADS-B
03:05AM 33.5355 -116.1965 96° East 533 613 35,000 1,380 Climbing FlightAware ADS-B
03:05AM 33.5230 -116.0470 96° East 520 598 36,400 1,200 Climbing FlightAware
03:06AM 33.5140 -115.9390 96° East 525 604 36,800 480 Climbing FlightAware
03:07AM 33.5050 -115.8310 96° East 524 603 37,000 300 Climbing FlightAware
03:07AM 33.5037 -115.8218 99° East 527 606 37,000  Level FlightAware ADS-B
03:08AM 33.4870 -115.6310 96° East 524 603 37,000  Level FlightAware
03:08AM 33.4800 -115.5410 95° East 524 603 37,000  Level FlightAware
03:09AM 33.4700 -115.4340 96° East 524 603 37,000  Level FlightAware
03:10AM 33.4620 -115.3460 96° East 524 603 37,000  Level FlightAware
03:10AM 33.4530 -115.2380 96° East 523 602 37,000  Level FlightAware
03:11AM 33.4430 -115.1280 96° East 522 601 37,000  Level FlightAware
03:11AM 33.4320 -115.0130 97° East 521 600 37,000  Level FlightAware
03:12AM 33.4230 -114.9140 96° East 521 600 37,000  Level FlightAware
03:13AM 33.4120 -114.8000 97° East 520 598 37,000  Level FlightAware
03:13AM 33.4040 -114.7150 96° East 520 598 37,000  Level FlightAware
03:14AM 33.3950 -114.6160 96° East 519 597 37,000  Level FlightAware
03:14AM 33.3870 -114.5310 96° East 518 596 37,000  Level FlightAware
03:15AM 33.3770 -114.4290 97° East 517 595 37,000  Level FlightAware
03:15AM 33.3670 -114.3320 97° East 516 594 37,000  Level FlightAware
03:16AM 33.3580 -114.2360 96° East 516 594 37,000  Level FlightAware
03:17AM 33.3480 -114.1350 97° East 515 593 37,000  Level FlightAware
03:17AM 33.3380 -114.0370 97° East 515 593 37,000  Level FlightAware
03:18AM 33.3290 -113.9400 96° East 515 593 37,000  Level FlightAware
03:18AM 33.3170 -113.8280 97° East 515 593 37,000  Level FlightAware
03:19AM 33.3080 -113.7370 97° East 514 592 37,000  Level FlightAware
03:20AM 33.3010 -113.6720 97° East 514 592 37,000  Level FlightAware
03:20AM 33.2910 -113.5690 97° East 513 590 37,000 300 Level FlightAware
03:21AM 33.2800 -113.4650 97° East 513 590 37,400 780 Climbing FlightAware
03:21AM 33.2690 -113.3600 97° East 510 587 38,000 900 Climbing FlightAware
03:22AM 33.2600 -113.2750 97° East 510 587 38,500 720 Climbing FlightAware
03:23AM 33.2480 -113.1650 97° East 511 588 38,900 420 Climbing FlightAware
03:23AM 33.2390 -113.0840 98° East 513 590 39,000 60 Climbing FlightAware
03:24AM 33.2270 -112.9690 97° East 512 589 39,000  Level FlightAware
03:24AM 33.2150 -112.8650 98° East 513 590 39,000  Level FlightAware
03:25AM 33.2040 -112.7590 97° East 516 594 39,000  Level FlightAware
03:26AM 33.1930 -112.6630 98° East 517 595 39,000  Level FlightAware
03:26AM 33.1790 -112.5420 98° East 516 594 39,000  Level FlightAware
03:27AM 33.1710 -112.4640 97° East 516 594 39,000  Level FlightAware
03:27AM 33.1590 -112.3620 98° East 517 595 39,000  Level FlightAware
03:28AM 33.1470 -112.2540 98° East 515 593 39,000  Level FlightAware
03:29AM 33.1340 -112.1430 98° East 515 593 39,000  Level FlightAware
03:29AM 33.1240 -112.0580 98° East 514 592 39,000  Level FlightAware
03:30AM 33.1080 -111.9240 98° East 514 592 39,000  Level FlightAware
03:31AM 33.0970 -111.8270 98° East 513 590 39,000  Level FlightAware
03:31AM 33.0840 -111.7240 99° East 512 589 39,000  Level FlightAware
03:32AM 33.0750 -111.6420 97° East 513 590 39,000  Level FlightAware
03:32AM 33.0620 -111.5400 99° East 512 589 39,000  Level FlightAware
03:33AM 33.0510 -111.4480 98° East 512 589 39,000  Level FlightAware
03:33AM 33.0370 -111.3300 98° East 513 590 39,000  Level FlightAware
03:34AM 33.0270 -111.2460 98° East 513 590 39,000  Level FlightAware
03:35AM 33.0150 -111.1530 99° East 514 592 39,000  Level FlightAware
03:35AM 33.0020 -111.0440 98° East 513 590 39,000  Level FlightAware
03:36AM 32.9850 -110.9140 99° East 512 589 39,000  Level FlightAware
03:36AM 32.9720 -110.8110 99° East 512 589 39,000  Level FlightAware
03:37AM 32.9590 -110.7070 98° East 513 590 39,000  Level FlightAware
03:38AM 32.9460 -110.6070 99° East 514 592 39,000  Level FlightAware
03:38AM 32.9350 -110.5180 98° East 516 594 39,000  Level FlightAware
03:39AM 32.9220 -110.4190 99° East 516 594 39,000  Level FlightAware
03:39AM 32.9090 -110.3210 99° East 517 595 39,000  Level FlightAware
03:40AM 32.8960 -110.2240 99° East 517 595 39,000  Level FlightAware
03:40AM 32.8830 -110.1220 99° East 517 595 39,000  Level FlightAware
03:41AM 32.8700 -110.0250 99° East 516 594 39,000  Level FlightAware
03:42AM 32.8560 -109.9220 99° East 515 593 39,000  Level FlightAware
03:42AM 32.8440 -109.8330 99° East 514 592 39,000  Level FlightAware
03:43AM 32.8300 -109.7340 100° East 514 592 39,000  Level FlightAware
03:43AM 32.8170 -109.6310 99° East 514 592 39,000  Level FlightAware
03:44AM 32.8030 -109.5330 100° East 513 590 39,000  Level FlightAware
03:45AM 32.7870 -109.4200 100° East 513 590 39,000  Level FlightAware
03:45AM 32.7740 -109.3220 99° East 512 589 39,000  Level FlightAware
03:46AM 32.7610 -109.2330 100° East 512 589 39,000  Level FlightAware
03:46AM 32.7470 -109.1310 99° East 512 589 39,000  Level FlightAware
03:47AM 32.7330 -109.0310 99° East 512 589 39,000  Level FlightAware
03:48AM 32.7210 -108.9500 100° East 511 588 39,000  Level FlightAware
03:48AM 32.7080 -108.8580 100° East 511 588 39,000  Level FlightAware
03:49AM 32.6950 -108.7630 99° East 511 588 39,000  Level FlightAware
03:49AM 32.6800 -108.6630 100° East 510 587 39,000  Level FlightAware
03:50AM 32.6660 -108.5660 100° East 508 585 39,000  Level FlightAware
03:50AM 32.6530 -108.4760 100° East 507 583 39,000  Level FlightAware
03:51AM 32.6370 -108.3720 100° East 508 585 39,000  Level FlightAware
03:52AM 32.6230 -108.2760 100° East 508 585 39,000  Level FlightAware
03:52AM 32.6100 -108.1860 100° East 508 585 39,000  Level FlightAware
03:53AM 32.5930 -108.0680 100° East 507 583 39,000  Level FlightAware
03:54AM 32.5820 -107.9810 99° East 507 583 39,000  Level FlightAware
03:54AM 32.5700 -107.8950 99° East 507 583 39,000  Level FlightAware
03:55AM 32.5590 -107.8110 99° East 507 583 39,000  Level FlightAware
03:55AM 32.5480 -107.7270 99° East 507 583 39,000  Level FlightAware
03:56AM 32.5370 -107.6430 99° East 507 583 39,000  Level FlightAware
03:57AM 32.5250 -107.5590 100° East 507 583 39,000  Level FlightAware
03:57AM 32.5140 -107.4740 99° East 507 583 39,000  Level FlightAware
03:58AM 32.4710 -107.2790 105° East 515 593 39,000  Level FlightAware
03:59AM 32.4510 -107.1490 100° East 519 597 39,000  Level FlightAware
03:59AM 32.4390 -107.0630 99° East 519 597 39,000  Level FlightAware
04:00AM 32.4180 -106.9430 102° East 527 606 39,000 60 Level FlightAware
04:00AM 32.4010 -106.8330 100° East 527 606 39,100  Climbing FlightAware
04:01AM 32.3870 -106.7470 101° East 526 605 39,000 -120 Descending FlightAware
04:01AM 32.3710 -106.6460 101° East 526 605 39,000  Level FlightAware
04:02AM 32.3530 -106.5420 102° East 524 603 39,000  Level FlightAware
04:03AM 32.3400 -106.4630 101° East 525 604 39,000  Level FlightAware
04:03AM 32.3210 -106.3430 101° East 526 605 39,000  Level FlightAware
04:04AM 32.3040 -106.2390 101° East 526 605 39,000  Level FlightAware
04:04AM 32.2900 -106.1560 101° East 527 606 39,000  Level FlightAware
04:05AM 32.2750 -106.0700 102° East 528 608 39,000  Level FlightAware
04:06AM 32.2590 -105.9720 101° East 528 608 39,000  Level FlightAware
04:06AM 32.2450 -105.8850 101° East 528 608 39,000  Level FlightAware
04:07AM 32.2310 -105.7990 101° East 528 608 39,000  Level FlightAware
04:07AM 32.2160 -105.7120 101° East 528 608 39,000  Level FlightAware
04:08AM 32.2020 -105.6250 101° East 528 608 39,000  Level FlightAware
04:09AM 32.1880 -105.5360 101° East 528 608 39,000  Level FlightAware
04:09AM 32.1730 -105.4490 101° East 528 608 39,000  Level FlightAware
04:10AM 32.1590 -105.3630 101° East 528 608 39,000  Level FlightAware
04:10AM 32.1450 -105.2760 101° East 528 608 39,000  Level FlightAware
04:11AM 32.1300 -105.1900 102° East 528 608 39,000  Level FlightAware
04:12AM 32.1160 -105.1000 100° East 528 608 39,000  Level FlightAware
04:12AM 32.1010 -105.0140 102° East 528 608 39,000  Level FlightAware
04:13AM 32.0830 -104.9030 101° East 528 608 39,000  Level FlightAware
04:13AM 32.0210 -104.5980 103° East 535 616 39,000  Level FlightAware
04:14AM 31.9950 -104.4480 102° East 534 615 39,000  Level FlightAware
04:15AM 31.9750 -104.3450 103° East 532 612 39,000  Level FlightAware
04:16AM 31.9550 -104.2350 102° East 532 612 39,000  Level FlightAware
04:16AM 31.9380 -104.1450 103° East 533 613 39,000  Level FlightAware
04:17AM 31.9230 -104.0580 101° East 533 613 39,000  Level FlightAware
04:17AM 31.9070 -103.9710 102° East 533 613 39,000  Level FlightAware
04:18AM 31.8910 -103.8840 102° East 533 613 39,000  Level FlightAware
04:19AM 31.8750 -103.7970 102° East 533 613 39,000  Level FlightAware
04:19AM 31.8600 -103.7100 101° East 533 613 39,000  Level FlightAware
04:20AM 31.8260 -103.5430 103° East 528 608 39,000  Level FlightAware
04:20AM 31.8090 -103.4470 102° East 528 608 39,000  Level FlightAware
04:21AM 31.7850 -103.3220 103° East 528 608 39,000  Level FlightAware
04:22AM 31.7690 -103.2360 102° East 528 608 39,000  Level FlightAware
04:22AM 31.7450 -103.1170 103° East 525 604 39,000  Level FlightAware
04:23AM 31.7250 -103.0120 103° East 524 603 39,000  Level FlightAware
04:24AM 31.7020 -102.8960 103° East 524 603 39,000  Level FlightAware
04:24AM 31.6840 -102.8000 102° East 524 603 39,000  Level FlightAware
04:25AM 31.6640 -102.7020 103° East 525 604 39,000  Level FlightAware
04:25AM 31.6430 -102.5920 103° East 525 604 39,000  Level FlightAware
04:26AM 31.6260 -102.5070 103° East 527 606 39,000  Level FlightAware
04:26AM 31.6060 -102.4050 103° East 525 604 39,000  Level FlightAware
04:27AM 31.5860 -102.3080 104° East 525 604 39,000  Level FlightAware
04:28AM 31.5680 -102.2160 103° East 524 603 39,000  Level FlightAware
04:28AM 31.5480 -102.1170 103° East 523 602 39,000  Level FlightAware
04:29AM 31.5310 -102.0310 103° East 522 601 39,000  Level FlightAware
04:29AM 31.5100 -101.9270 103° East 522 601 39,000  Level FlightAware
04:30AM 31.4900 -101.8260 103° East 523 602 39,000  Level FlightAware
04:31AM 31.4690 -101.7270 104° East 524 603 39,000  Level FlightAware
04:31AM 31.4500 -101.6310 103° East 524 603 39,000  Level FlightAware
04:32AM 31.4320 -101.5440 104° East 524 603 39,000  Level FlightAware
04:32AM 31.4120 -101.4460 103° East 522 601 39,000  Level FlightAware
04:33AM 31.3910 -101.3470 104° East 523 602 39,000  Level FlightAware
04:33AM 31.3700 -101.2480 104° East 523 602 39,000  Level FlightAware
04:34AM 31.3500 -101.1490 103° East 523 602 39,000  Level FlightAware
04:35AM 31.3320 -101.0630 104° East 522 601 39,000  Level FlightAware
04:35AM 31.3110 -100.9630 104° East 522 601 39,000  Level FlightAware
04:36AM 31.2910 -100.8720 104° East 521 600 39,000  Level FlightAware
04:36AM 31.2690 -100.7650 103° East 520 598 39,000  Level FlightAware
04:37AM 31.2500 -100.6790 104° East 520 598 39,000  Level FlightAware
04:38AM 31.2300 -100.5820 104° East 522 601 39,000  Level FlightAware
04:38AM 31.2080 -100.4830 105° East 522 601 39,000  Level FlightAware
04:39AM 31.1870 -100.3840 104° East 525 604 39,000  Level FlightAware
04:39AM 31.1680 -100.2970 104° East 526 605 39,000  Level FlightAware
04:40AM 31.1450 -100.1920 104° East 527 606 39,000  Level FlightAware
04:41AM 31.1240 -100.0930 104° East 528 608 39,000  Level FlightAware
04:41AM 31.1040 -100.0050 105° East 528 608 39,000  Level FlightAware
04:42AM 31.0830 -99.9070 104° East 528 608 39,000  Level FlightAware
04:42AM 31.0620 -99.8130 105° East 527 606 39,000  Level FlightAware
04:43AM 31.0400 -99.7130 104° East 527 606 39,000  Level FlightAware
04:43AM 31.0170 -99.6130 105° East 526 605 39,000  Level FlightAware
04:44AM 30.9960 -99.5160 104° East 525 604 39,000  Level FlightAware
04:45AM 30.9760 -99.4290 105° East 524 603 39,000  Level FlightAware
04:45AM 30.9540 -99.3310 105° East 524 603 39,000  Level FlightAware
04:46AM 30.9330 -99.2360 104° East 523 602 39,000  Level FlightAware
04:46AM 30.9130 -99.1460 104° East 523 602 39,000  Level FlightAware
04:47AM 30.8860 -99.0260 105° East 520 598 39,000  Level FlightAware
04:48AM 30.8590 -98.9120 105° East 517 595 39,000  Level FlightAware
04:48AM 30.8390 -98.8240 105° East 516 594 39,000  Level FlightAware
04:49AM 30.8130 -98.7100 105° East 516 594 39,000  Level FlightAware
04:50AM 30.7950 -98.6300 105° East 516 594 39,000  Level FlightAware
04:50AM 30.7700 -98.5270 106° East 516 594 39,000  Level FlightAware
04:51AM 30.7480 -98.4300 105° East 517 595 39,000  Level FlightAware
04:51AM 30.7207 -98.3149 105° East 519 597 39,000  Level FlightAware ADS-B
04:52AM 30.7016 -98.2337 105° East 519 597 39,000  Level FlightAware ADS-B
04:52AM 30.6821 -98.1509 105° East 519 597 39,000  Level FlightAware ADS-B
04:53AM 30.6627 -98.0685 105° East 521 600 39,000  Level FlightAware ADS-B
04:53AM 30.6433 -97.9870 105° East 521 600 39,000  Level FlightAware ADS-B
04:54AM 30.6239 -97.9051 105° East 520 598 39,000 -840 Level FlightAware ADS-B
04:54AM 30.6045 -97.8236 105° East 527 606 38,200 -1,380 Descending FlightAware ADS-B
04:55AM 30.5923 -97.7729 106° East 518 596 37,900 -1,200 Descending FlightAware ADS-B
04:55AM 30.5850 -97.7423 105° East 515 593 37,600 -1,800 Descending FlightAware ADS-B
04:55AM 30.5730 -97.6927 106° East 512 589 37,000 -2,160 Descending FlightAware ADS-B
04:55AM 30.5655 -97.6615 106° East 514 592 36,500 -2,520 Descending FlightAware ADS-B
04:56AM 30.5534 -97.6106 105° East 516 594 35,700 -2,340 Descending FlightAware ADS-B
04:56AM 30.5456 -97.5781 106° East 517 595 35,300 -1,440 Descending FlightAware ADS-B
04:56AM 30.5342 -97.5300 105° East 523 602 35,000 -600 Descending FlightAware ADS-B
04:57AM 30.5261 -97.4966 106° East 525 604 35,000  Level FlightAware ADS-B
04:57AM 30.5064 -97.4145 106° East 525 604 35,000 -120 Level FlightAware ADS-B
04:58AM 30.4856 -97.3339 107° East 520 598 34,900 -780 Descending FlightAware ADS-B
04:58AM 30.4710 -97.2846 109° East 517 595 34,400 -2,100 Descending FlightAware ADS-B
04:58AM 30.4472 -97.2058 109° East 515 593 33,200 -2,520 Descending FlightAware ADS-B
04:59AM 30.4240 -97.1271 109° East 511 588 31,900 -2,400 Descending FlightAware ADS-B
04:59AM 30.4014 -97.0500 109° East 505 581 30,800 -2,400 Descending FlightAware ADS-B
05:00AM 30.3788 -96.9727 109° East 501 577 29,500 -2,460 Descending FlightAware ADS-B
05:00AM 30.3561 -96.8957 109° East 491 565 28,300 -2,100 Descending FlightAware ADS-B
05:01AM 30.3347 -96.8221 109° East 477 549 27,400 -2,400 Descending FlightAware ADS-B
05:01AM 30.3132 -96.7489 109° East 477 549 25,900 -2,220 Descending FlightAware ADS-B
05:02AM 30.2925 -96.6781 109° East 455 524 25,200 -2,040 Descending FlightAware ADS-B
05:02AM 30.2721 -96.6093 109° East 448 516 23,900 -2,640 Descending FlightAware ADS-B
05:03AM 30.2518 -96.5413 109° East 439 505 22,600 -3,300 Descending FlightAware ADS-B
05:03AM 30.2322 -96.4756 109° East 435 501 20,600 -4,380 Descending FlightAware ADS-B
05:04AM 30.2121 -96.4079 109° East 441 507 18,200 -3,900 Descending FlightAware ADS-B
05:04AM 30.1918 -96.3394 109° East 423 487 16,600 -3,420 Descending FlightAware ADS-B
05:05AM 30.1727 -96.2753 109° East 415 478 14,700 -3,480 Descending FlightAware ADS-B
05:05AM 30.1542 -96.2137 109° East 402 463 13,100 -2,940 Descending FlightAware ADS-B
05:06AM 30.1374 -96.1583 109° East 384 442 11,900 -2,400 Descending FlightAware ADS-B
05:06AM 30.1204 -96.1010 109° East 361 415 10,800 -1,620 Descending FlightAware ADS-B
05:07AM 30.1049 -96.0490 109° East 322 371 10,300 -1,200 Descending FlightAware ADS-B
05:07AM 30.0976 -96.0247 109° East 309 356 9,900 -1,800 Descending FlightAware ADS-B
05:07AM 30.0905 -96.0019 110° East 301 346 9,400 -2,220 Descending FlightAware ADS-B
05:08AM 30.0833 -95.9786 110° East 298 343 8,800 -2,340 Descending FlightAware ADS-B
05:08AM 30.0764 -95.9560 109° East 295 339 8,200 -2,640 Descending FlightAware ADS-B
05:08AM 30.0720 -95.9412 109° East 297 342 7,700 -2,400 Descending FlightAware ADS-B
05:08AM 30.0675 -95.9257 109° East 294 338 7,400 -1,860 Descending FlightAware ADS-B
05:09AM 30.0608 -95.9036 109° East 288 331 6,900 -2,220 Descending FlightAware ADS-B
05:09AM 30.0540 -95.8821 110° East 282 325 6,300 -2,220 Descending FlightAware ADS-B
05:09AM 30.0472 -95.8604 110° East 282 325 5,800 -2,160 Descending FlightAware ADS-B
05:09AM 30.0404 -95.8382 109° East 282 325 5,200 -2,040 Descending FlightAware ADS-B
05:10AM 30.0332 -95.8144 109° East 280 322 4,700 -1,680 Descending FlightAware ADS-B
05:10AM 30.0265 -95.7916 109° East 282 325 4,300 -1,200 Descending FlightAware ADS-B
05:10AM 30.0200 -95.7701 109° East 273 314 4,100 -600 Descending FlightAware ADS-B
05:10AM 30.0131 -95.7479 110° East 271 312 4,000 -240 Descending FlightAware ADS-B
05:11AM 30.0070 -95.7281 110° East 256 295 4,000  Level FlightAware ADS-B
05:11AM 30.0014 -95.7099 110° East 243 280 4,000  Level FlightAware ADS-B
05:11AM 29.9971 -95.6958 109° East 239 275 4,000  Level FlightAware ADS-B
05:11AM 29.9960 -95.6916 107° East 238 274 4,000  Level FlightAware ADS-B
05:11AM 29.9950 -95.6869 104° East 239 275 4,000  Level FlightAware ADS-B
05:11AM 29.9944 -95.6824 99° East 240 276 4,000  Level FlightAware ADS-B
05:11AM 29.9935 -95.6720 96° East 242 278 4,000  Level FlightAware ADS-B
05:12AM 29.9930 -95.6561 92° East 238 274 4,000  Level FlightAware ADS-B
05:12AM 29.9928 -95.6414 91° East 236 272 4,000  Level FlightAware ADS-B
05:12AM 29.9928 -95.6221 90° East 235 270 4,000 -240 Level FlightAware ADS-B
05:12AM 29.9929 -95.6026 90° East 237 273 3,900 -420 Descending FlightAware ADS-B
05:12AM 29.9930 -95.5857 90° East 234 269 3,800 -660 Descending FlightAware ADS-B
05:13AM 29.9930 -95.5658 90° East 233 268 3,600 -1,140 Descending FlightAware ADS-B
05:13AM 29.9930 -95.5457 90° East 231 266 3,200 -1,140 Descending FlightAware ADS-B
05:13AM 29.9931 -95.5272 90° East 216 249 3,000 -1,200 Descending FlightAware ADS-B
05:14AM 29.9932 -95.5101 90° East 208 239 2,600 -1,200 Descending FlightAware ADS-B
05:14AM 29.9932 -95.4941 90° East 194 223 2,400 -1,020 Descending FlightAware ADS-B
05:14AM 29.9932 -95.4795 90° East 179 206 2,100 -1,020 Descending FlightAware ADS-B
05:14AM 29.9932 -95.4652 90° East 168 193 1,900 -780 Descending FlightAware ADS-B
05:15AM 29.9933 -95.4514 90° East 158 182 1,700 -780 Descending FlightAware ADS-B
05:15AM 29.9933 -95.4390 90° East 149 171 1,500 -780 Descending FlightAware ADS-B
05:15AM 29.9933 -95.4271 90° East 138 159 1,300 -840 Descending FlightAware ADS-B
05:15AM 29.9933 -95.4219 90° East 131 151 1,200 -720 Descending FlightAware ADS-B
05:15AM 29.9933 -95.4157 90° East 125 144 1,100 -660 Descending FlightAware ADS-B
05:16AM 29.9933 -95.4098 90° East 121 139 1,000 -540 Descending FlightAware ADS-B
05:16AM 29.9934 -95.3998 89° East 119 137 900 -600 Descending FlightAware ADS-B
05:16AM 29.9934 -95.3903 90° East 119 137 700 -840 Descending FlightAware ADS-B
05:16AM 29.9933 -95.3858 91° East 119 137 600 -720 Descending FlightAware ADS-B
05:16AM 29.9934 -95.3789 89° East 119 137 500 -420 Descending FlightAware ADS-B
05:16AM 29.9934 -95.3758 90° East 119 137 500 -600 Level FlightAware ADS-B
05:16AM 29.9934 -95.3724 90° East 119 137 400 -600 Descending FlightAware ADS-B
05:17AM 29.9934 -95.3628 90° East 122 140 300 -600 Descending FlightAware ADS-B
05:17AM 29.9934 -95.3586 90° East 124 143 200  Descending FlightAware ADS-B
05:18AM 29.9944 -95.3325 90° East 135 155 300 120 Climbing Houston Center